CYBW

Calgary/Springbank Airport

Airport
ICAO code
CYBW
IATA Code
YBW
Summary
ICAO Region
NAM
ICAO Territory
Location

Springbank, Alberta

Serving
Calgary
Elevation
3940 ft
Coordinates
51° 6' 17" N , 114° 22' 43" W
KCC
Metar
CYBW 211100Z AUTO 31005KT 9SM CLR 03/03 A3013 RMK ICE MISG SLP220

Calgary/Springbank Airport or Springbank Airport, is an airport located in Springbank, Alberta, a large western suburb of Calgary, Alberta, Canada.

Climatology

Humid continental climate (Köppen climate classification Dfb)

Runways

Designator Length Width Surface Rops
7/25 1036 30 ASP No/No
16/34 1524 30 ASP No/No

Airport map

Aerial View

SKYbrary Partners:

Safety knowledge contributed by: